Time;durP1;ratioP1;P1;durP2;ratioP2;P2;SDS_P1;SDS_P2;PMS_P1;PMS_P2;Temp;Humidity;BMP_temperature;BMP_pressure;BME280_temperature;BME280_humidity;BME280_pressure;Samples;Min_cycle;Max_cycle;Signal;HPM_P1;HPM_P2
2023/09/08 00:00:52;;;;;;;19.30;12.10;;;;;;;17.89;88.61;101369.78;217871;1288;141145;-89
2023/09/08 00:05:52;;;;;;;18.80;11.10;;;;;;;17.86;88.87;101370.36;218333;1288;139663;-89
2023/09/08 00:10:52;;;;;;;19.00;11.50;;;;;;;17.82;89.14;101368.77;217906;1288;142451;-89
2023/09/08 00:15:53;;;;;;;16.90;11.10;;;;;;;17.79;89.58;101365.21;218266;1288;139937;-90
2023/09/08 00:20:53;;;;;;;17.20;11.10;;;;;;;17.75;89.65;101359.48;217855;1288;142701;-90
2023/09/08 00:25:54;;;;;;;17.90;10.80;;;;;;;17.71;89.92;101358.30;218508;1288;96095;-90
2023/09/08 00:30:54;;;;;;;18.30;11.40;;;;;;;17.67;90.13;101356.98;217856;1289;141027;-90
2023/09/08 00:35:57;;;;;;;19.40;11.00;;;;;;;17.64;90.46;101351.66;218313;1290;139256;-90
2023/09/08 00:40:58;;;;;;;17.70;11.60;;;;;;;17.60;90.30;101351.90;217670;1289;141622;-89
2023/09/08 00:46:02;;;;;;;18.10;11.20;;;;;;;17.56;90.61;101353.42;218405;1288;139719;-90
2023/09/08 00:51:04;;;;;;;13.30;9.30;;;;;;;17.52;90.83;101349.94;217821;1290;142215;-90
2023/09/08 00:56:05;;;;;;;15.80;9.90;;;;;;;17.48;91.66;101348.13;218345;1288;140423;-88
2023/09/08 01:01:06;;;;;;;16.40;10.30;;;;;;;17.42;92.18;101348.23;217941;1288;140901;-89
2023/09/08 01:06:06;;;;;;;18.00;10.90;;;;;;;17.36;92.37;101350.91;218275;1291;139926;-89
2023/09/08 01:11:07;;;;;;;20.40;11.40;;;;;;;17.31;92.51;101347.33;217887;1288;142041;-89
2023/09/08 01:16:07;;;;;;;16.20;11.60;;;;;;;17.26;92.33;101344.55;218344;1288;139922;-90
2023/09/08 01:21:25;;;;;;;14.90;10.40;;;;;;;17.22;93.18;101342.65;217823;1290;141729;-90
2023/09/08 01:26:30;;;;;;;19.00;13.00;;;;;;;17.16;93.21;101344.41;218244;1288;139847;-90
2023/09/08 01:31:31;;;;;;;21.60;12.40;;;;;;;17.13;93.27;101345.61;217807;1289;141106;-89
2023/09/08 01:36:31;;;;;;;15.60;10.80;;;;;;;17.10;94.00;101346.48;218275;1288;139728;-89
2023/09/08 01:41:32;;;;;;;16.10;10.30;;;;;;;17.05;94.22;101340.27;217832;1289;141168;-89
2023/09/08 01:46:32;;;;;;;19.60;13.70;;;;;;;17.01;93.94;101341.16;218345;1289;140215;-89
2023/09/08 01:51:33;;;;;;;18.80;13.20;;;;;;;16.97;93.87;101333.07;217799;1291;142186;-88
2023/09/08 01:56:33;;;;;;;18.40;12.20;;;;;;;16.94;94.53;101330.84;218321;1288;139958;-89
2023/09/08 02:01:34;;;;;;;21.10;12.30;;;;;;;16.91;94.92;101331.40;217955;1288;141479;-89
2023/09/08 02:06:34;;;;;;;18.40;12.20;;;;;;;16.86;94.49;101328.78;218350;1288;139283;-89
2023/09/08 02:11:35;;;;;;;19.60;13.50;;;;;;;16.82;94.73;101328.77;217784;1290;141277;-89
2023/09/08 02:16:35;;;;;;;23.60;12.20;;;;;;;16.79;94.94;101329.50;218212;1288;140223;-89
2023/09/08 02:21:36;;;;;;;20.40;13.10;;;;;;;16.77;95.12;101326.71;217854;1289;141332;-89
2023/09/08 02:26:38;;;;;;;18.60;13.20;;;;;;;16.73;95.13;101329.00;218411;1292;139969;-89
2023/09/08 02:31:38;;;;;;;20.70;15.30;;;;;;;16.70;95.85;101324.73;217872;1288;142492;-88
2023/09/08 02:36:39;;;;;;;16.40;12.10;;;;;;;16.67;96.07;101326.95;218353;1289;139755;-89
2023/09/08 02:41:40;;;;;;;20.80;14.60;;;;;;;16.63;96.44;101327.81;217768;1288;142156;-89
2023/09/08 02:46:40;;;;;;;20.10;13.30;;;;;;;16.58;96.32;101326.70;218267;1292;139378;-89
2023/09/08 02:51:40;;;;;;;20.60;15.10;;;;;;;16.54;96.67;101327.89;217666;1290;145032;-89
2023/09/08 02:56:41;;;;;;;17.20;12.30;;;;;;;16.50;97.14;101322.72;218243;1289;139319;-89
2023/09/08 03:01:42;;;;;;;16.90;12.80;;;;;;;16.48;97.01;101315.80;217849;1291;145626;-89
2023/09/08 03:06:42;;;;;;;20.90;13.70;;;;;;;16.45;96.85;101315.02;218338;1289;139022;-89
2023/09/08 03:11:43;;;;;;;21.10;15.50;;;;;;;16.41;97.52;101311.99;217641;1288;142652;-88
2023/09/08 03:16:43;;;;;;;22.40;13.00;;;;;;;16.39;97.96;101308.41;218283;1290;139379;-89
2023/09/08 03:21:44;;;;;;;19.20;14.20;;;;;;;16.35;97.75;101310.04;217831;1288;142020;-90
2023/09/08 03:26:44;;;;;;;23.40;14.70;;;;;;;16.32;97.95;101306.30;218298;1293;139221;-89
2023/09/08 03:31:44;;;;;;;22.80;14.50;;;;;;;16.29;98.11;101311.54;217841;1288;141981;-89
2023/09/08 03:36:45;;;;;;;21.70;14.90;;;;;;;16.27;98.15;101310.59;218217;1288;140076;-89
2023/09/08 03:41:45;;;;;;;20.90;14.90;;;;;;;16.23;98.26;101314.07;217776;1289;140867;-89
2023/09/08 03:46:46;;;;;;;20.50;15.50;;;;;;;16.21;98.74;101317.08;218331;1290;139913;-89
2023/09/08 03:51:46;;;;;;;19.50;15.40;;;;;;;16.19;98.88;101317.23;217941;1294;142462;-90
2023/09/08 03:56:46;;;;;;;18.50;13.90;;;;;;;16.16;99.11;101318.50;218334;1289;139512;-89
2023/09/08 04:01:47;;;;;;;25.40;15.30;;;;;;;16.14;99.27;101314.84;217519;1291;141705;-88
2023/09/08 04:06:48;;;;;;;22.80;17.40;;;;;;;16.11;99.75;101315.08;218414;1288;139224;-89
2023/09/08 04:11:49;;;;;;;21.00;15.30;;;;;;;16.09;99.90;101318.64;217963;1288;142386;-89
2023/09/08 04:16:49;;;;;;;19.70;14.40;;;;;;;16.07;99.79;101317.76;218372;1288;139841;-89
2023/09/08 04:21:49;;;;;;;24.40;16.70;;;;;;;16.05;99.91;101320.22;217805;1289;141411;-89
2023/09/08 04:26:50;;;;;;;23.20;15.80;;;;;;;16.03;99.88;101322.83;218208;1293;140811;-90
2023/09/08 04:31:50;;;;;;;23.00;17.20;;;;;;;16.03;99.99;101321.63;217708;1291;141704;-89
2023/09/08 04:36:50;;;;;;;23.50;17.10;;;;;;;16.02;100.00;101321.55;218348;1293;139301;-90
2023/09/08 04:41:51;;;;;;;20.50;15.90;;;;;;;16.03;100.00;101320.61;217737;1289;141626;-90
2023/09/08 04:46:52;;;;;;;26.50;17.70;;;;;;;16.04;100.00;101316.40;218167;1294;139889;-89
2023/09/08 04:51:53;;;;;;;24.90;18.10;;;;;;;16.04;100.00;101316.25;217784;1292;141502;-90
2023/09/08 04:56:54;;;;;;;23.90;18.10;;;;;;;16.06;100.00;101321.10;218259;1288;139838;-90
2023/09/08 05:01:54;;;;;;;22.00;17.00;;;;;;;16.09;100.00;101319.98;217803;1290;142540;-89
2023/09/08 05:06:55;;;;;;;22.00;17.90;;;;;;;16.10;100.00;101325.38;218326;1289;140004;-89
2023/09/08 05:11:56;;;;;;;25.60;17.70;;;;;;;16.15;100.00;101323.80;217718;1288;141758;-89
2023/09/08 05:16:56;;;;;;;22.90;17.80;;;;;;;16.19;100.00;101323.81;218273;1289;140054;-89
2023/09/08 05:21:57;;;;;;;26.00;18.70;;;;;;;16.23;100.00;101327.95;217661;1289;141637;-89
2023/09/08 05:26:58;;;;;;;25.90;18.50;;;;;;;16.26;100.00;101325.51;218304;1289;139877;-90
2023/09/08 05:31:58;;;;;;;29.00;19.50;;;;;;;16.32;100.00;101329.81;217903;1292;142217;-90
2023/09/08 05:36:59;;;;;;;27.70;18.70;;;;;;;16.38;100.00;101333.55;218303;1288;139053;-90
2023/09/08 05:41:59;;;;;;;27.90;19.50;;;;;;;16.45;100.00;101334.46;217864;1288;141621;-88
2023/09/08 05:46:59;;;;;;;25.10;18.70;;;;;;;16.53;100.00;101333.67;218325;1288;139919;-88
2023/09/08 05:52:00;;;;;;;25.90;19.20;;;;;;;16.61;100.00;101334.24;217750;1290;142308;-88
2023/09/08 05:57:00;;;;;;;24.40;19.10;;;;;;;16.72;100.00;101335.84;218505;1288;139511;-87
2023/09/08 06:02:10;;;;;;;25.00;19.70;;;;;;;16.86;100.00;101335.92;218018;1288;141863;-87
2023/09/08 06:07:14;;;;;;;28.40;20.20;;;;;;;17.02;100.00;101336.88;218511;1288;105862;-88
2023/09/08 06:12:14;;;;;;;24.60;17.30;;;;;;;17.17;100.00;101338.61;217799;1288;141168;-88
2023/09/08 06:17:15;;;;;;;25.40;16.50;;;;;;;17.31;100.00;101338.34;218397;1289;140197;-88
2023/09/08 06:22:15;;;;;;;31.10;18.20;;;;;;;17.52;100.00;101336.34;217942;1288;142422;-88
2023/09/08 06:27:16;;;;;;;26.70;17.10;;;;;;;17.67;100.00;101333.67;218355;1288;140355;-88
2023/09/08 06:32:17;;;;;;;29.00;17.50;;;;;;;17.87;100.00;101329.05;217820;1288;141734;-88
2023/09/08 06:37:17;;;;;;;25.60;16.10;;;;;;;18.06;100.00;101329.91;218503;1289;95919;-89
2023/09/08 06:42:18;;;;;;;28.00;15.30;;;;;;;18.18;100.00;101332.40;217909;1288;141562;-87
2023/09/08 06:47:18;;;;;;;30.20;15.70;;;;;;;18.30;100.00;101334.26;218326;1289;139986;-86
2023/09/08 06:52:19;;;;;;;22.00;14.60;;;;;;;18.48;100.00;101336.08;217615;1289;141267;-87
2023/09/08 06:57:19;;;;;;;23.50;14.80;;;;;;;18.71;100.00;101337.58;218342;1289;139635;-86
2023/09/08 07:02:20;;;;;;;26.60;14.80;;;;;;;18.90;99.58;101338.94;217810;1288;141313;-87
2023/09/08 07:07:20;;;;;;;26.10;13.80;;;;;;;19.05;99.14;101339.61;218408;1289;95962;-87
2023/09/08 07:12:21;;;;;;;23.40;15.10;;;;;;;19.25;98.72;101335.61;217725;1290;141672;-87
2023/09/08 07:17:23;;;;;;;22.90;13.30;;;;;;;19.44;98.26;101340.29;218316;1288;140291;-88
2023/09/08 07:22:23;;;;;;;22.90;13.40;;;;;;;19.63;97.59;101334.17;217719;1290;141030;-87
2023/09/08 07:27:23;;;;;;;21.20;12.90;;;;;;;19.84;97.37;101335.20;218296;1288;139980;-87
2023/09/08 07:32:24;;;;;;;18.90;12.90;;;;;;;20.12;96.01;101330.23;217547;1291;143117;-87
2023/09/08 07:37:25;;;;;;;22.10;12.60;;;;;;;20.32;94.38;101328.73;218463;1288;96345;-88
2023/09/08 07:42:38;;;;;;;21.10;11.90;;;;;;;20.59;93.34;101327.54;218053;1288;140998;-87
2023/09/08 07:47:39;;;;;;;19.80;10.80;;;;;;;20.80;91.58;101329.69;218307;1288;138083;-86
2023/09/08 07:52:39;;;;;;;23.70;11.10;;;;;;;21.05;89.99;101329.44;217124;1293;141572;-87
2023/09/08 07:57:50;;;;;;;20.90;10.70;;;;;;;21.27;89.09;101326.02;218399;1290;139313;-87
2023/09/08 08:02:55;;;;;;;19.20;9.60;;;;;;;21.52;87.48;101316.73;217701;1288;140905;-88
2023/09/08 08:07:56;;;;;;;17.40;10.40;;;;;;;21.75;87.63;101315.17;218248;1288;111205;-88
2023/09/08 08:12:56;;;;;;;16.70;9.30;;;;;;;21.99;86.61;101309.86;217798;1289;143567;-88
2023/09/08 08:17:57;;;;;;;20.80;9.80;;;;;;;22.26;86.58;101307.08;218382;1288;140080;-87
2023/09/08 08:22:57;;;;;;;14.00;8.50;;;;;;;22.57;84.50;101309.11;217827;1288;141260;-88
2023/09/08 08:27:58;;;;;;;15.00;8.10;;;;;;;22.85;83.65;101307.84;218399;1288;139401;-88
2023/09/08 08:32:58;;;;;;;13.00;7.40;;;;;;;23.16;81.63;101306.17;217850;1288;142476;-86
2023/09/08 08:38:02;;;;;;;14.30;7.30;;;;;;;23.50;80.17;101309.27;218463;1288;95820;-86
2023/09/08 08:43:03;;;;;;;16.50;6.90;;;;;;;23.87;78.44;101309.83;217877;1289;141324;-86
2023/09/08 08:48:05;;;;;;;14.60;6.90;;;;;;;24.23;76.32;101306.70;218230;1288;139360;-87
2023/09/08 08:53:07;;;;;;;12.80;6.70;;;;;;;24.64;75.38;101297.36;217782;1288;140280;-88
2023/09/08 08:58:08;;;;;;;19.90;7.20;;;;;;;25.16;73.04;101298.83;218173;1289;139240;-87
2023/09/08 09:03:09;;;;;;;13.70;7.20;;;;;;;25.79;72.79;101290.88;217804;1288;142155;-87
2023/09/08 09:08:11;;;;;;;32.90;7.80;;;;;;;26.51;71.71;101289.02;218364;1290;96079;-85
2023/09/08 09:13:12;;;;;;;13.40;6.30;;;;;;;27.38;69.91;101287.00;217868;1288;143084;-89
2023/09/08 09:18:23;;;;;;;10.40;6.60;;;;;;;28.15;64.14;101285.02;218390;1288;138772;-89
2023/09/08 09:23:32;;;;;;;14.00;5.90;;;;;;;28.60;62.31;101275.48;217813;1288;140785;-88
2023/09/08 09:28:33;;;;;;;13.20;7.20;;;;;;;29.51;60.79;101275.66;218266;1289;137201;-88
2023/09/08 09:33:34;;;;;;;16.10;6.50;;;;;;;30.13;57.10;101271.25;217751;1288;139955;-88
2023/09/08 09:38:38;;;;;;;15.70;6.40;;;;;;;30.45;54.58;101269.17;218359;1288;138486;-87
2023/09/08 09:43:45;;;;;;;19.60;6.70;;;;;;;30.87;54.31;101262.89;217750;1288;139881;-89
2023/09/08 09:48:58;;;;;;;11.50;6.00;;;;;;;31.45;51.75;101255.50;218373;1289;139663;-88
2023/09/08 09:54:14;;;;;;;15.10;5.70;;;;;;;31.95;50.87;101252.60;217668;1289;139684;-88
2023/09/08 09:59:14;;;;;;;12.10;6.60;;;;;;;32.48;50.08;101254.13;217688;1288;140836;-87
2023/09/08 10:04:27;;;;;;;13.70;6.40;;;;;;;32.87;48.56;101249.05;218404;1289;137352;-87
2023/09/08 10:09:28;;;;;;;9.90;5.70;;;;;;;33.10;46.80;101252.20;218003;1288;139108;-88
2023/09/08 10:14:31;;;;;;;10.80;5.70;;;;;;;33.46;46.10;101247.05;218404;1288;139230;-88
2023/09/08 10:19:41;;;;;;;11.30;5.90;;;;;;;33.77;44.49;101247.85;218034;1289;139757;-89
2023/09/08 10:24:46;;;;;;;9.10;6.00;;;;;;;33.93;43.76;101242.94;218133;1289;138936;-87
2023/09/08 10:29:48;;;;;;;10.50;5.60;;;;;;;33.93;41.69;101243.66;217911;1289;140616;-88
2023/09/08 10:34:50;;;;;;;14.60;5.60;;;;;;;33.65;41.50;101239.52;218213;1288;138890;-89
2023/09/08 10:40:24;;;;;;;;;;;;;;;;;;;;;
2023/09/08 10:45:31;;;;;;;11.40;5.50;;;;;;;33.80;40.84;101238.05;218527;1288;138912;-87
2023/09/08 10:50:38;;;;;;;9.20;5.20;;;;;;;33.63;40.08;101231.05;217795;1290;139903;-87
2023/09/08 10:55:47;;;;;;;10.50;5.50;;;;;;;33.50;40.06;101224.08;218537;1289;96242;-88
2023/09/08 11:00:57;;;;;;;13.20;6.00;;;;;;;33.56;40.10;101221.06;217346;1288;505015;-89
2023/09/08 11:05:57;;;;;;;10.00;5.20;;;;;;;33.32;39.13;101215.50;218251;1288;138941;-88
2023/09/08 11:10:58;;;;;;;9.90;5.70;;;;;;;32.92;38.78;101214.17;218026;1288;140938;-88
2023/09/08 11:16:02;;;;;;;8.40;4.60;;;;;;;32.68;39.20;101207.67;218728;1288;137158;-88
2023/09/08 11:21:03;;;;;;;;;;;;;;;32.80;39.85;101203.52;217873;1289;141133;-88
2023/09/08 11:26:10;;;;;;;10.40;5.40;;;;;;;32.88;40.17;101201.09;218690;1288;96219;-87
2023/09/08 11:31:13;;;;;;;12.90;5.40;;;;;;;33.11;39.41;101196.34;217953;1289;141804;-88
2023/09/08 11:36:14;;;;;;;9.40;5.60;;;;;;;33.02;39.68;101192.17;218530;1288;138419;-88
2023/09/08 11:41:16;;;;;;;12.80;5.90;;;;;;;33.17;40.21;101185.10;217539;1290;139343;-85
2023/09/08 11:46:17;;;;;;;9.50;5.40;;;;;;;32.94;38.60;101186.00;218237;1288;138477;-86
2023/09/08 11:51:23;;;;;;;9.80;5.60;;;;;;;32.38;38.74;101180.91;217877;1291;139717;-87
2023/09/08 11:56:42;;;;;;;11.10;5.70;;;;;;;32.32;39.83;101180.83;218558;1288;103822;-88
2023/09/08 12:01:45;;;;;;;8.40;5.00;;;;;;;32.61;39.61;101177.83;217890;1288;140175;-88
2023/09/08 12:06:46;;;;;;;9.70;5.30;;;;;;;32.37;39.93;101172.00;218451;1288;139214;-85
2023/09/08 12:11:50;;;;;;;11.10;5.50;;;;;;;32.28;40.28;101168.73;218011;1288;139572;-88
2023/09/08 12:17:05;;;;;;;11.00;5.60;;;;;;;32.40;40.29;101163.78;218371;1288;139013;-85
2023/09/08 12:22:07;;;;;;;10.40;6.20;;;;;;;32.42;39.74;101158.61;217803;1288;140933;-85
2023/09/08 12:27:08;;;;;;;9.30;5.30;;;;;;;32.19;39.09;101154.52;218247;1288;139096;-87
2023/09/08 12:32:09;;;;;;;7.80;4.90;;;;;;;32.06;39.47;101151.79;218036;1288;140431;-87
2023/09/08 12:37:11;;;;;;;8.10;5.10;;;;;;;31.88;39.13;101151.54;218430;1288;138464;-86
2023/09/08 12:42:12;;;;;;;9.00;4.80;;;;;;;31.50;40.31;101147.12;217710;1288;140407;-88
2023/09/08 12:47:13;;;;;;;10.70;6.10;;;;;;;31.62;40.67;101141.79;218384;1288;139125;-86
2023/09/08 12:52:14;;;;;;;12.50;5.80;;;;;;;31.69;39.72;101139.17;217686;1288;233207;-87
2023/09/08 12:57:14;;;;;;;11.10;5.50;;;;;;;31.40;40.53;101130.23;218448;1288;138308;-86
2023/09/08 13:02:15;;;;;;;10.00;5.10;;;;;;;31.34;40.75;101128.20;217996;1288;140740;-85
2023/09/08 13:07:16;;;;;;;10.80;5.50;;;;;;;31.17;40.98;101122.68;218612;1288;138043;-87
2023/09/08 13:12:17;;;;;;;10.40;5.60;;;;;;;31.27;41.04;101116.20;217768;1288;141426;-86
2023/09/08 13:17:17;;;;;;;11.50;5.10;;;;;;;31.06;40.59;101107.92;218488;1288;138311;-87
2023/09/08 13:22:18;;;;;;;9.80;5.10;;;;;;;31.02;40.60;101107.94;217744;1288;140909;-86
2023/09/08 13:27:18;;;;;;;11.50;5.60;;;;;;;31.00;40.33;101108.39;218399;1288;138631;-87
2023/09/08 13:32:19;;;;;;;11.50;5.50;;;;;;;30.85;39.47;101102.23;217979;1288;141057;-87
2023/09/08 13:37:19;;;;;;;8.50;4.90;;;;;;;30.53;39.69;101099.20;218301;1288;139774;-87
2023/09/08 13:42:23;;;;;;;13.00;5.80;;;;;;;30.37;41.31;101094.75;217961;1289;139971;-87
2023/09/08 13:47:23;;;;;;;8.80;5.10;;;;;;;30.36;41.52;101094.23;218371;1288;138739;-87
2023/09/08 13:52:23;;;;;;;10.10;5.40;;;;;;;30.27;41.67;101088.21;217788;1288;144148;-87
2023/09/08 13:57:25;;;;;;;9.00;5.30;;;;;;;30.22;42.33;101078.91;218258;1289;138288;-86
2023/09/08 14:02:26;;;;;;;9.40;5.60;;;;;;;30.27;42.87;101075.15;217963;1288;139789;-87
2023/09/08 14:07:27;;;;;;;13.00;5.40;;;;;;;30.13;42.61;101065.05;218381;1288;138126;-86
2023/09/08 14:12:27;;;;;;;13.00;6.40;;;;;;;30.07;42.76;101061.95;217930;1289;140594;-86
2023/09/08 14:17:28;;;;;;;12.00;5.00;;;;;;;29.88;42.50;101056.44;218353;1289;138425;-85
2023/09/08 14:22:29;;;;;;;9.50;5.00;;;;;;;29.67;42.93;101055.70;217908;1288;140445;-85
2023/09/08 14:27:29;;;;;;;11.90;6.20;;;;;;;29.51;42.98;101048.10;218261;1288;138274;-85
2023/09/08 14:32:31;;;;;;;10.90;5.50;;;;;;;29.41;42.81;101043.09;217931;1288;141538;-86
2023/09/08 14:37:31;;;;;;;10.00;5.30;;;;;;;29.25;42.64;101039.98;218414;1288;138209;-86
2023/09/08 14:42:31;;;;;;;9.20;5.20;;;;;;;29.08;43.89;101038.87;217787;1288;140458;-86
2023/09/08 14:47:32;;;;;;;8.90;5.40;;;;;;;29.00;43.70;101042.61;218341;1288;138370;-86
2023/09/08 14:52:33;;;;;;;9.70;5.40;;;;;;;28.94;44.37;101043.19;217768;1290;140062;-85
2023/09/08 14:57:33;;;;;;;11.10;5.70;;;;;;;28.77;44.20;101041.64;218445;1288;138324;-87
2023/09/08 15:02:34;;;;;;;11.20;5.40;;;;;;;28.62;44.92;101038.46;218006;1288;140064;-86
2023/09/08 15:07:37;;;;;;;9.60;4.70;;;;;;;28.51;44.68;101033.86;218417;1288;137923;-85
2023/09/08 15:12:48;;;;;;;12.50;5.80;;;;;;;28.36;44.49;101035.98;217836;1288;140376;-85
2023/09/08 15:17:52;;;;;;;9.80;5.20;;;;;;;28.16;44.81;101033.39;218172;1288;138474;-85
2023/09/08 15:22:57;;;;;;;8.80;5.20;;;;;;;28.05;44.95;101032.38;217935;1288;142096;-85
2023/09/08 15:27:59;;;;;;;8.90;5.00;;;;;;;27.91;44.95;101032.95;218220;1290;138373;-85
2023/09/08 15:33:05;;;;;;;7.90;5.00;;;;;;;27.75;45.20;101026.23;217910;1288;139967;-85
2023/09/08 15:38:15;;;;;;;11.50;6.40;;;;;;;27.65;45.96;101021.12;218470;1290;108023;-85
2023/09/08 15:43:24;;;;;;;10.70;5.40;;;;;;;27.50;46.11;101021.70;217811;1289;140532;-85
2023/09/08 15:48:45;;;;;;;11.50;5.50;;;;;;;27.39;46.57;101019.20;218232;1291;138709;-84
2023/09/08 15:53:46;;;;;;;11.20;5.20;;;;;;;27.25;46.30;101014.71;217661;1288;139946;-85
2023/09/08 15:58:46;;;;;;;9.60;5.30;;;;;;;27.17;46.89;101013.95;218449;1289;138486;-86
2023/09/08 16:03:47;;;;;;;10.00;5.30;;;;;;;27.08;47.31;101005.83;217793;1288;140239;-85
2023/09/08 16:08:48;;;;;;;11.30;5.20;;;;;;;26.94;47.76;101005.20;218455;1289;140279;-86
2023/09/08 16:13:50;;;;;;;8.50;5.40;;;;;;;26.78;47.83;100999.73;218037;1288;140832;-85
2023/09/08 16:18:52;;;;;;;8.90;5.10;;;;;;;26.66;48.33;100996.98;218199;1289;138888;-85
2023/09/08 16:23:53;;;;;;;9.30;5.80;;;;;;;26.57;47.92;100999.34;217886;1288;140349;-85
2023/09/08 16:28:53;;;;;;;7.80;4.70;;;;;;;26.43;48.00;101001.16;218373;1288;138918;-87
2023/09/08 16:33:53;;;;;;;8.60;4.80;;;;;;;26.34;49.88;101000.02;217801;1288;140824;-86
2023/09/08 16:38:54;;;;;;;8.50;5.50;;;;;;;26.22;51.08;100997.90;218326;1289;138663;-87
2023/09/08 16:43:54;;;;;;;9.20;5.00;;;;;;;26.00;52.44;100994.79;218197;1290;140194;-87
2023/09/08 16:48:55;;;;;;;10.80;5.50;;;;;;;25.79;53.71;100990.59;218487;1288;137991;-87
2023/09/08 16:53:57;;;;;;;10.00;6.10;;;;;;;25.59;56.01;100994.49;217819;1288;140275;-87
2023/09/08 16:58:57;;;;;;;12.80;6.20;;;;;;;25.40;57.37;101001.63;218486;1288;142437;-87
2023/09/08 17:03:59;;;;;;;10.80;5.70;;;;;;;25.23;58.96;101002.34;217997;1288;140570;-86
2023/09/08 17:08:59;;;;;;;11.30;5.50;;;;;;;25.05;60.23;100998.85;218445;1288;138383;-87
2023/09/08 17:14:00;;;;;;;15.90;6.10;;;;;;;24.85;61.18;101000.66;217968;1288;140469;-87
2023/09/08 17:19:00;;;;;;;14.10;6.30;;;;;;;24.60;62.65;101003.08;218307;1288;138818;-87
2023/09/08 17:24:01;;;;;;;10.90;6.30;;;;;;;24.33;64.09;101003.25;217730;1290;140930;-87
2023/09/08 17:29:01;;;;;;;11.10;7.20;;;;;;;24.10;65.18;101001.73;218491;1291;139099;-87
2023/09/08 17:34:02;;;;;;;11.70;7.00;;;;;;;23.93;66.44;101002.19;217735;1288;140288;-87
2023/09/08 17:39:02;;;;;;;18.10;8.60;;;;;;;23.75;66.82;101005.34;218194;1291;139314;-86
2023/09/08 17:44:03;;;;;;;13.60;7.50;;;;;;;23.50;67.31;101006.10;217927;1289;141964;-87
2023/09/08 17:49:04;;;;;;;13.30;7.50;;;;;;;23.27;68.29;101009.75;217897;1290;139384;-82
2023/09/08 17:54:04;;;;;;;18.20;7.60;;;;;;;23.12;69.36;101007.73;218375;1289;138637;-85
2023/09/08 17:59:05;;;;;;;15.30;8.90;;;;;;;22.95;69.57;101010.31;217694;1288;140633;-86
2023/09/08 18:04:06;;;;;;;12.50;7.80;;;;;;;22.72;70.15;101012.29;218292;1289;138462;-86
2023/09/08 18:09:06;;;;;;;16.20;8.20;;;;;;;22.49;71.15;101009.50;217831;1289;140164;-87
2023/09/08 18:14:07;;;;;;;15.70;8.10;;;;;;;22.28;71.95;101008.95;218385;1288;96603;-87
2023/09/08 18:19:08;;;;;;;22.10;9.30;;;;;;;22.10;72.74;101002.17;217808;1288;139873;-87
2023/09/08 18:24:08;;;;;;;18.50;8.80;;;;;;;21.92;73.73;101006.42;218218;1291;138739;-87
2023/09/08 18:29:08;;;;;;;13.70;7.90;;;;;;;21.72;75.06;101004.42;217907;1288;164256;-88
2023/09/08 18:34:12;;;;;;;18.50;8.80;;;;;;;21.59;76.06;101007.08;218353;1288;139397;-87
2023/09/08 18:39:19;;;;;;;17.70;9.10;;;;;;;21.40;76.51;101007.15;217826;1290;141453;-87
2023/09/08 18:44:20;;;;;;;14.70;7.90;;;;;;;21.23;77.49;101010.98;218439;1289;103920;-88
2023/09/08 18:49:22;;;;;;;17.50;8.70;;;;;;;21.07;78.42;101009.18;217780;1289;141310;-87
2023/09/08 18:54:28;;;;;;;13.40;7.40;;;;;;;20.92;78.96;101011.04;218569;1288;137730;-87
2023/09/08 18:59:28;;;;;;;16.40;7.50;;;;;;;20.82;79.57;101011.79;217791;1292;142467;-87
2023/09/08 19:04:29;;;;;;;13.90;7.80;;;;;;;20.71;79.94;101005.16;218406;1291;138074;-88
2023/09/08 19:09:29;;;;;;;15.80;7.60;;;;;;;20.61;79.94;101000.98;217699;1288;141446;-87
2023/09/08 19:14:30;;;;;;;17.00;7.60;;;;;;;20.46;80.64;101000.80;218384;1288;96182;-86
2023/09/08 19:19:31;;;;;;;14.40;7.60;;;;;;;20.28;81.07;100999.64;217696;1288;143112;-87
2023/09/08 19:24:32;;;;;;;13.40;7.50;;;;;;;20.20;80.91;100999.16;218380;1289;138898;-88
2023/09/08 19:29:32;;;;;;;11.40;7.20;;;;;;;20.14;82.02;101001.75;217676;1288;140754;-88
2023/09/08 19:34:33;;;;;;;12.70;7.50;;;;;;;20.06;82.13;101005.16;218171;1292;139344;-88
2023/09/08 19:39:33;;;;;;;13.30;7.50;;;;;;;19.99;81.79;101003.27;217639;1291;141335;-87
2023/09/08 19:44:34;;;;;;;12.30;6.40;;;;;;;19.96;81.80;101003.90;218369;1288;96399;-87
2023/09/08 19:49:38;;;;;;;14.20;7.50;;;;;;;19.92;80.51;100998.69;217836;1288;142078;-87
2023/09/08 19:54:39;;;;;;;14.40;7.80;;;;;;;19.89;79.62;101000.48;218248;1291;138860;-87
2023/09/08 19:59:39;;;;;;;9.90;6.70;;;;;;;19.86;79.30;100999.83;217841;1289;143669;-87
2023/09/08 20:04:42;;;;;;;13.30;6.60;;;;;;;19.83;78.80;100992.95;218162;1291;138987;-87
2023/09/08 20:09:43;;;;;;;14.50;7.20;;;;;;;19.80;79.30;100984.15;217855;1289;141863;-87
2023/09/08 20:14:44;;;;;;;12.60;8.40;;;;;;;19.76;79.90;100982.13;218417;1289;111018;-87
2023/09/08 20:19:44;;;;;;;12.70;7.60;;;;;;;19.73;80.35;100983.71;217975;1288;142152;-87
2023/09/08 20:24:45;;;;;;;11.80;6.90;;;;;;;19.69;80.36;100986.41;218333;1289;139583;-87
2023/09/08 20:29:47;;;;;;;15.40;8.40;;;;;;;19.64;81.42;100986.27;217851;1289;141134;-87
2023/09/08 20:34:48;;;;;;;13.80;8.30;;;;;;;19.54;81.72;100987.86;218341;1289;139015;-87
2023/09/08 20:39:48;;;;;;;10.60;7.20;;;;;;;19.47;82.04;100987.66;217819;1288;140388;-88
2023/09/08 20:44:49;;;;;;;16.20;7.90;;;;;;;19.43;82.45;100992.67;218420;1288;139109;-87
2023/09/08 20:49:49;;;;;;;13.00;8.00;;;;;;;19.38;81.91;100993.71;217946;1288;141492;-88
2023/09/08 20:54:50;;;;;;;13.40;7.40;;;;;;;19.33;82.55;100992.11;218869;1291;138880;-88
2023/09/08 20:59:50;;;;;;;12.60;7.80;;;;;;;19.28;82.78;100992.91;217786;1289;142223;-87
2023/09/08 21:04:51;;;;;;;14.20;8.40;;;;;;;19.21;82.82;100989.17;218261;1288;139934;-87
2023/09/08 21:09:51;;;;;;;12.70;8.10;;;;;;;19.15;82.64;100991.48;217913;1293;142512;-87
2023/09/08 21:14:52;;;;;;;15.60;8.80;;;;;;;19.09;83.52;100987.59;218131;1290;139194;-86
2023/09/08 21:19:52;;;;;;;13.00;8.20;;;;;;;18.99;83.98;100985.10;217961;1289;142116;-87
2023/09/08 21:24:53;;;;;;;12.50;8.20;;;;;;;18.92;84.45;100983.86;218719;1289;137711;-87
2023/09/08 21:29:53;;;;;;;13.40;8.30;;;;;;;18.86;84.68;100979.64;218341;1288;140590;-87
2023/09/08 21:34:54;;;;;;;13.30;8.90;;;;;;;18.80;84.43;100977.17;218262;1288;139459;-86
2023/09/08 21:39:54;;;;;;;18.40;10.10;;;;;;;18.76;84.21;100978.27;217800;1288;141269;-87
2023/09/08 21:44:55;;;;;;;14.00;8.80;;;;;;;18.71;84.62;100976.58;218378;1288;139901;-88
2023/09/08 21:49:56;;;;;;;13.60;8.50;;;;;;;18.62;85.26;100968.50;218017;1291;213814;-88
2023/09/08 21:54:56;;;;;;;15.50;8.90;;;;;;;18.56;85.38;100973.98;218306;1288;139437;-87
2023/09/08 21:59:57;;;;;;;13.80;9.20;;;;;;;18.49;86.73;100980.44;217677;1288;141178;-87
2023/09/08 22:04:57;;;;;;;16.50;9.30;;;;;;;18.40;86.93;100973.46;218442;1288;139958;-87
2023/09/08 22:09:58;;;;;;;13.00;8.90;;;;;;;18.30;87.42;100975.94;218085;1288;141287;-87
2023/09/08 22:14:58;;;;;;;15.70;8.80;;;;;;;18.22;87.70;100978.98;218467;1289;139090;-87
2023/09/08 22:19:58;;;;;;;14.40;9.10;;;;;;;18.17;87.70;100976.41;217952;1289;140774;-87
2023/09/08 22:24:59;;;;;;;14.90;9.30;;;;;;;18.12;87.66;100975.19;218289;1288;139694;-88
2023/09/08 22:30:00;;;;;;;14.50;9.30;;;;;;;18.07;87.82;100971.19;217715;1290;140739;-87
2023/09/08 22:35:01;;;;;;;14.10;9.00;;;;;;;18.03;87.29;100973.30;218408;1288;139310;-87